createdAt,value
2022-10-01T00:00:51.982Z,65.22
2022-10-01T00:02:09.783Z,65.22
2022-10-01T00:03:27.635Z,65.12
2022-10-01T00:04:45.745Z,65.22
2022-10-01T00:06:03.614Z,65.12
2022-10-01T00:07:21.454Z,65.22
2022-10-01T00:08:37.832Z,65.33
2022-10-01T00:09:54.235Z,65.39
2022-10-01T00:11:10.938Z,65.19
2022-10-01T00:12:28.791Z,65.19
2022-10-01T00:13:46.608Z,65.12
2022-10-01T00:15:09.003Z,65.19
2022-10-01T00:16:25.791Z,65.30
2022-10-01T00:17:42.471Z,65.09
2022-10-01T00:18:58.848Z,65.19
2022-10-01T00:20:15.239Z,65.30
2022-10-01T00:21:33.405Z,65.39
2022-10-01T00:22:49.951Z,65.30
2022-10-01T00:24:06.589Z,65.30
2022-10-01T00:25:24.442Z,65.30
2022-10-01T00:26:40.851Z,65.19
2022-10-01T00:27:58.727Z,65.19
2022-10-01T00:29:15.081Z,65.30
2022-10-01T00:30:31.735Z,65.30
2022-10-01T00:31:48.231Z,65.39
2022-10-01T00:33:04.619Z,65.50
2022-10-01T00:34:20.991Z,65.60
2022-10-01T00:35:37.409Z,65.60
2022-10-01T00:36:54.104Z,65.50
2022-10-01T00:38:10.493Z,65.50
2022-10-01T00:39:26.868Z,65.50
2022-10-01T00:40:43.264Z,65.60
2022-10-01T00:42:01.138Z,65.50
2022-10-01T00:43:17.806Z,65.30
2022-10-01T00:44:34.187Z,65.19
2022-10-01T00:45:50.621Z,65.09
2022-10-01T00:47:08.478Z,65.19
2022-10-01T00:48:24.854Z,64.99
2022-10-01T00:49:41.521Z,65.09
2022-10-01T00:50:57.938Z,64.99
2022-10-01T00:52:14.306Z,64.89
2022-10-01T00:53:30.688Z,64.89
2022-10-01T00:54:47.148Z,64.79
2022-10-01T00:56:03.849Z,64.58
2022-10-01T00:57:21.687Z,64.79
2022-10-01T00:58:39.526Z,64.69
2022-10-01T00:59:57.363Z,64.69
2022-10-01T01:01:13.918Z,64.79
2022-10-01T01:02:30.637Z,64.79
2022-10-01T01:03:46.988Z,64.69
2022-10-01T01:05:03.432Z,64.79
2022-10-01T01:06:19.821Z,64.79
2022-10-01T01:07:36.270Z,64.58
2022-10-01T01:08:52.937Z,64.69
2022-10-01T01:10:09.463Z,64.58
2022-10-01T01:11:25.883Z,64.69
2022-10-01T01:12:43.763Z,64.79
2022-10-01T01:14:00.278Z,64.69
2022-10-01T01:15:17.107Z,64.89
2022-10-01T01:16:33.564Z,64.69
2022-10-01T01:17:49.924Z,64.69
2022-10-01T01:19:06.373Z,64.79
2022-10-01T01:20:22.734Z,64.89
2022-10-01T01:21:39.422Z,64.79
2022-10-01T01:22:55.794Z,64.79
2022-10-01T01:24:12.227Z,64.69
2022-10-01T01:25:28.618Z,64.69
2022-10-01T01:26:46.456Z,64.79
2022-10-01T01:28:03.142Z,64.79
2022-10-01T01:29:19.547Z,64.79
2022-10-01T01:30:37.397Z,65.70
2022-10-01T01:31:53.810Z,66.21
2022-10-01T01:33:10.198Z,67.74
2022-10-01T01:34:26.910Z,66.72
2022-10-01T01:35:44.738Z,67.77
2022-10-01T01:37:02.569Z,68.38
2022-10-01T01:38:20.408Z,69.80
2022-10-01T01:39:36.838Z,70.62
2022-10-01T01:40:53.497Z,70.34
2022-10-01T01:42:09.909Z,71.67
2022-10-01T01:43:27.722Z,73.43
2022-10-01T01:44:45.610Z,73.94
2022-10-01T01:46:03.590Z,75.10
2022-10-01T01:47:21.771Z,76.12
2022-10-01T01:48:38.153Z,76.05
2022-10-01T01:49:56.516Z,77.17
2022-10-01T01:51:14.351Z,77.68
2022-10-01T01:52:30.795Z,78.12
2022-10-01T01:53:47.435Z,79.04
2022-10-01T01:55:03.852Z,79.25
2022-10-01T01:56:20.242Z,80.00
2022-10-01T01:57:36.618Z,80.91
2022-10-01T01:58:54.564Z,81.12
2022-10-01T02:00:11.236Z,81.26
2022-10-01T02:01:27.665Z,82.49
2022-10-01T02:02:44.171Z,83.30
2022-10-01T02:04:00.614Z,83.14
2022-10-01T02:05:18.947Z,83.54
2022-10-01T02:06:35.575Z,83.54
2022-10-01T02:07:51.975Z,83.54
2022-10-01T02:09:08.376Z,83.44
2022-10-01T02:10:24.767Z,83.44
2022-10-01T02:11:42.577Z,84.36
2022-10-01T02:12:59.251Z,84.36
2022-10-01T02:14:15.649Z,84.26
2022-10-01T02:15:32.040Z,84.57
2022-10-01T02:16:48.416Z,84.98
2022-10-01T02:18:04.799Z,84.41
2022-10-01T02:19:21.582Z,85.12
2022-10-01T02:20:38.003Z,85.83
2022-10-01T02:21:55.837Z,85.83
2022-10-01T02:23:12.221Z,85.94
2022-10-01T02:24:28.650Z,86.14
2022-10-01T02:25:45.372Z,86.04
2022-10-01T02:27:01.733Z,86.76
2022-10-01T02:28:19.651Z,86.76
2022-10-01T02:29:36.063Z,86.65
2022-10-01T02:30:52.505Z,86.14
2022-10-01T02:32:09.113Z,86.76
2022-10-01T02:33:25.492Z,87.57
2022-10-01T02:34:41.911Z,86.85
2022-10-01T02:35:58.335Z,87.26
2022-10-01T02:37:14.704Z,87.16
2022-10-01T02:38:32.364Z,87.26
2022-10-01T02:39:48.745Z,86.96
2022-10-01T02:41:06.583Z,86.96
2022-10-01T02:42:22.954Z,86.96
2022-10-01T02:43:43.091Z,86.85
2022-10-01T02:44:59.874Z,86.90
2022-10-01T02:46:17.773Z,86.55
2022-10-01T02:47:34.203Z,86.55
2022-10-01T02:48:50.575Z,87.26
2022-10-01T02:50:07.228Z,86.85
2022-10-01T02:51:23.616Z,87.47
2022-10-01T02:52:40.027Z,87.16
2022-10-01T02:53:56.446Z,87.77
2022-10-01T02:55:12.806Z,87.67
2022-10-01T02:56:30.420Z,87.47
2022-10-01T02:57:46.819Z,88.49
2022-10-01T02:59:03.281Z,87.77
2022-10-01T03:00:19.677Z,87.77
2022-10-01T03:01:36.488Z,88.33
2022-10-01T03:02:53.514Z,88.53
2022-10-01T03:04:09.889Z,87.82
2022-10-01T03:05:27.753Z,88.74
2022-10-01T03:06:45.600Z,88.94
2022-10-01T03:08:01.982Z,87.82
2022-10-01T03:09:19.641Z,88.53
2022-10-01T03:10:36.140Z,88.53
2022-10-01T03:11:52.551Z,88.53
2022-10-01T03:13:10.371Z,88.84
2022-10-01T03:14:26.770Z,89.56
2022-10-01T03:15:43.568Z,89.56
2022-10-01T03:17:01.405Z,89.76
2022-10-01T03:18:17.905Z,89.56
2022-10-01T03:19:34.295Z,90.17
2022-10-01T03:20:52.174Z,89.65
2022-10-01T03:22:08.844Z,89.76
2022-10-01T03:23:25.214Z,89.97
2022-10-01T03:24:41.612Z,90.06
2022-10-01T03:25:59.465Z,89.76
2022-10-01T03:27:17.315Z,90.58
2022-10-01T03:28:33.967Z,90.06
2022-10-01T03:29:50.354Z,89.76
2022-10-01T03:31:06.798Z,90.47
2022-10-01T03:32:24.617Z,89.45
2022-10-01T03:33:40.998Z,90.17
2022-10-01T03:34:57.655Z,90.17
2022-10-01T03:36:15.569Z,90.68
2022-10-01T03:37:33.426Z,90.58
2022-10-01T03:38:49.801Z,90.78
2022-10-01T03:40:06.197Z,90.78
2022-10-01T03:41:24.460Z,90.88
2022-10-01T03:42:42.688Z,91.03
2022-10-01T03:44:00.876Z,90.82
2022-10-01T03:45:18.729Z,90.88
2022-10-01T03:46:35.141Z,90.21
2022-10-01T03:47:51.807Z,90.62
2022-10-01T03:49:09.638Z,90.78
2022-10-01T03:50:26.028Z,91.29
2022-10-01T03:51:43.889Z,90.68
2022-10-01T03:53:00.272Z,90.88
2022-10-01T03:54:16.929Z,90.37
2022-10-01T03:55:34.778Z,90.58
2022-10-01T03:56:52.640Z,90.47
2022-10-01T03:58:10.491Z,90.68
2022-10-01T03:59:28.360Z,91.50
2022-10-01T04:00:45.038Z,91.39
2022-10-01T04:02:02.973Z,91.60
2022-10-01T04:03:20.862Z,91.60
2022-10-01T04:04:37.285Z,91.91
2022-10-01T04:05:53.703Z,92.25
2022-10-01T04:07:10.363Z,91.95
2022-10-01T04:08:26.756Z,92.25
2022-10-01T04:09:43.164Z,92.46
2022-10-01T04:10:59.559Z,92.15
2022-10-01T04:12:17.385Z,92.46
2022-10-01T04:13:34.069Z,92.56
2022-10-01T04:14:51.945Z,92.56
2022-10-01T04:16:09.823Z,93.07
2022-10-01T04:17:26.205Z,93.18
2022-10-01T04:18:42.588Z,92.87
2022-10-01T04:19:59.267Z,92.97
2022-10-01T04:21:15.662Z,93.07
2022-10-01T04:22:33.507Z,92.77
2022-10-01T04:23:49.920Z,93.18
2022-10-01T04:25:07.801Z,93.28
2022-10-01T04:26:24.456Z,92.97
2022-10-01T04:27:42.358Z,93.38
2022-10-01T04:29:00.698Z,92.46
2022-10-01T04:30:18.523Z,93.07
2022-10-01T04:31:36.704Z,93.18
2022-10-01T04:32:55.074Z,93.13
2022-10-01T04:34:11.459Z,92.66
2022-10-01T04:35:29.281Z,92.21
2022-10-01T04:36:45.671Z,93.03
2022-10-01T04:38:02.110Z,92.62
2022-10-01T04:39:20.309Z,92.01
2022-10-01T04:40:36.703Z,91.91
2022-10-01T04:41:54.550Z,92.01
2022-10-01T04:43:12.413Z,91.39
2022-10-01T04:44:30.271Z,91.80
2022-10-01T04:45:48.323Z,92.01
2022-10-01T04:47:06.192Z,92.11
2022-10-01T04:48:22.587Z,92.62
2022-10-01T04:49:40.444Z,92.72
2022-10-01T04:50:58.284Z,93.13
2022-10-01T04:52:14.937Z,93.13
2022-10-01T04:53:31.315Z,92.93
2022-10-01T04:54:49.182Z,93.24
2022-10-01T04:56:05.580Z,93.24
2022-10-01T04:57:23.418Z,93.13
2022-10-01T04:58:40.109Z,93.13
2022-10-01T04:59:58.007Z,93.03
2022-10-01T05:01:14.495Z,93.03
2022-10-01T05:02:32.338Z,92.42
2022-10-01T05:03:50.177Z,91.66
2022-10-01T05:05:06.855Z,91.25
2022-10-01T05:06:23.277Z,91.15
2022-10-01T05:07:39.648Z,90.84
2022-10-01T05:08:57.500Z,90.53
2022-10-01T05:10:15.329Z,90.39
2022-10-01T05:11:33.710Z,90.39
2022-10-01T05:12:51.686Z,89.58
2022-10-01T05:14:08.060Z,89.37
2022-10-01T05:15:24.440Z,90.19
2022-10-01T05:16:42.450Z,89.06
2022-10-01T05:17:59.071Z,88.85
2022-10-01T05:19:15.461Z,88.96
2022-10-01T05:20:33.320Z,88.65
2022-10-01T05:21:51.214Z,88.71
2022-10-01T05:23:09.053Z,88.65
2022-10-01T05:24:25.738Z,89.06
2022-10-01T05:25:43.590Z,88.51
2022-10-01T05:27:01.436Z,88.31
2022-10-01T05:28:22.176Z,88.61
2022-10-01T05:29:40.342Z,88.20
2022-10-01T05:30:57.063Z,87.79
2022-10-01T05:32:14.904Z,88.20
2022-10-01T05:33:32.734Z,88.10
2022-10-01T05:34:53.581Z,88.51
2022-10-01T05:36:11.623Z,88.71
2022-10-01T05:37:28.284Z,88.10
2022-10-01T05:38:46.095Z,88.51
2022-10-01T05:40:02.527Z,87.79
2022-10-01T05:41:20.383Z,88.41
2022-10-01T05:42:37.110Z,88.41
2022-10-01T05:43:53.727Z,88.71
2022-10-01T05:45:11.912Z,88.92
2022-10-01T05:46:29.180Z,89.02
2022-10-01T05:47:47.051Z,88.61
2022-10-01T05:49:04.866Z,89.23
2022-10-01T05:50:21.512Z,89.02
2022-10-01T05:51:37.872Z,89.08
2022-10-01T05:52:55.831Z,89.12
2022-10-01T05:54:13.666Z,89.43
2022-10-01T05:55:31.513Z,88.67
2022-10-01T05:56:49.136Z,89.39
2022-10-01T05:58:05.577Z,89.69
2022-10-01T05:59:23.404Z,89.39
2022-10-01T06:00:41.240Z,89.59
2022-10-01T06:01:59.240Z,90.04
2022-10-01T06:03:17.464Z,90.25
2022-10-01T06:04:40.338Z,90.35
2022-10-01T06:05:57.946Z,90.66
2022-10-01T06:07:15.768Z,90.45
2022-10-01T06:08:33.618Z,90.75
2022-10-01T06:09:50.258Z,90.86
2022-10-01T06:11:08.117Z,90.75
2022-10-01T06:12:24.480Z,90.75
2022-10-01T06:13:42.337Z,90.86
2022-10-01T06:14:58.709Z,91.27
2022-10-01T06:16:15.388Z,90.86
2022-10-01T06:17:31.732Z,90.96
2022-10-01T06:18:49.599Z,91.06
2022-10-01T06:20:07.411Z,91.37
2022-10-01T06:21:23.811Z,91.37
2022-10-01T06:22:41.639Z,91.37
2022-10-01T06:23:59.538Z,91.16
2022-10-01T06:25:17.354Z,91.16
2022-10-01T06:26:35.193Z,91.33
2022-10-01T06:27:53.361Z,91.47
2022-10-01T06:29:11.180Z,91.43
2022-10-01T06:30:29.026Z,91.53
2022-10-01T06:31:46.904Z,91.16
2022-10-01T06:33:04.726Z,91.43
2022-10-01T06:34:21.385Z,91.47
2022-10-01T06:35:39.214Z,91.53
2022-10-01T06:36:57.037Z,91.47
2022-10-01T06:38:14.966Z,91.22
2022-10-01T06:39:32.794Z,91.12
2022-10-01T06:40:49.428Z,91.53
2022-10-01T06:42:07.280Z,91.12
2022-10-01T06:43:25.217Z,91.02
2022-10-01T06:44:43.068Z,91.12
2022-10-01T06:46:00.965Z,91.02
2022-10-01T06:47:19.128Z,91.12
2022-10-01T06:48:36.973Z,91.22
2022-10-01T06:49:54.805Z,91.02
2022-10-01T06:51:12.668Z,91.43
2022-10-01T06:52:30.517Z,91.33
2022-10-01T06:53:48.619Z,91.22
2022-10-01T06:55:06.473Z,91.53
2022-10-01T06:56:24.310Z,91.22
2022-10-01T06:57:42.147Z,91.33
2022-10-01T06:58:59.992Z,91.53
2022-10-01T07:00:16.651Z,91.33
2022-10-01T07:01:34.795Z,91.43
2022-10-01T07:02:52.807Z,91.63
2022-10-01T07:04:10.612Z,91.22
2022-10-01T07:05:28.462Z,91.53
2022-10-01T07:06:46.582Z,91.53
2022-10-01T07:08:04.422Z,91.63
2022-10-01T07:09:20.815Z,91.43
2022-10-01T07:10:38.633Z,91.39
2022-10-01T07:11:56.573Z,91.08
2022-10-01T07:13:14.693Z,91.28
2022-10-01T07:14:32.503Z,91.39
2022-10-01T07:15:50.349Z,91.18
2022-10-01T07:17:08.244Z,91.08
2022-10-01T07:18:24.629Z,91.18
2022-10-01T07:19:41.265Z,90.77
2022-10-01T07:20:59.134Z,90.88
2022-10-01T07:22:16.960Z,90.77
2022-10-01T07:23:34.335Z,90.77
2022-10-01T07:24:52.208Z,90.67
2022-10-01T07:26:10.337Z,90.88
2022-10-01T07:27:28.187Z,90.57
2022-10-01T07:28:46.027Z,90.53
2022-10-01T07:30:03.858Z,90.53
2022-10-01T07:31:21.767Z,90.63
2022-10-01T07:32:39.869Z,91.24
2022-10-01T07:33:57.713Z,91.14
2022-10-01T07:35:15.544Z,90.63
2022-10-01T07:36:33.880Z,90.83
2022-10-01T07:37:51.733Z,90.22
2022-10-01T07:39:09.899Z,90.32
2022-10-01T07:40:27.721Z,90.42
2022-10-01T07:41:45.553Z,89.92
2022-10-01T07:43:03.371Z,90.12
2022-10-01T07:44:19.794Z,89.81
2022-10-01T07:45:36.523Z,89.67
2022-10-01T07:46:54.404Z,89.97
2022-10-01T07:48:12.214Z,89.77
2022-10-01T07:49:31.831Z,89.87
2022-10-01T07:50:49.686Z,90.18
2022-10-01T07:52:12.368Z,90.38
2022-10-01T07:53:30.154Z,90.28
2022-10-01T07:54:48.028Z,90.79
2022-10-01T07:56:05.860Z,90.79
2022-10-01T07:57:23.703Z,90.48
2022-10-01T07:58:41.515Z,90.38
2022-10-01T07:59:59.385Z,90.38
2022-10-01T08:01:17.264Z,90.89
2022-10-01T08:02:33.973Z,90.99
2022-10-01T08:03:51.850Z,90.95
2022-10-01T08:05:09.714Z,90.79
2022-10-01T08:06:27.537Z,90.89
2022-10-01T08:07:45.377Z,90.85
2022-10-01T08:09:03.485Z,91.05
2022-10-01T08:10:21.348Z,90.99
2022-10-01T08:11:39.187Z,91.40
2022-10-01T08:12:57.009Z,91.71
2022-10-01T08:14:14.830Z,91.91
2022-10-01T08:15:32.681Z,91.91
2022-10-01T08:16:50.142Z,91.91
2022-10-01T08:18:08.001Z,91.71
2022-10-01T08:19:25.820Z,91.91
2022-10-01T08:20:43.970Z,92.01
2022-10-01T08:22:01.781Z,92.11
2022-10-01T08:23:19.633Z,92.32
2022-10-01T08:24:37.441Z,92.52
2022-10-01T08:25:55.298Z,92.32
2022-10-01T08:27:13.414Z,92.18
2022-10-01T08:28:31.296Z,92.27
2022-10-01T08:29:50.015Z,91.66
2022-10-01T08:31:07.822Z,91.46
2022-10-01T08:32:25.633Z,91.42
2022-10-01T08:33:43.484Z,91.42
2022-10-01T08:35:01.376Z,91.31
2022-10-01T08:36:19.213Z,91.01
2022-10-01T08:37:37.056Z,90.66
2022-10-01T08:38:53.722Z,90.66
2022-10-01T08:40:11.566Z,90.56
2022-10-01T08:41:31.078Z,90.16
2022-10-01T08:42:48.906Z,90.25
2022-10-01T08:44:06.773Z,90.05
2022-10-01T08:45:24.867Z,90.05
2022-10-01T08:46:42.698Z,90.22
2022-10-01T08:48:00.518Z,90.31
2022-10-01T08:49:18.459Z,90.42
2022-10-01T08:50:36.856Z,89.91
2022-10-01T08:51:54.988Z,89.61
2022-10-01T08:53:12.800Z,89.91
2022-10-01T08:54:30.668Z,89.91
2022-10-01T08:55:48.503Z,90.01
2022-10-01T08:57:06.340Z,89.70
2022-10-01T08:58:22.983Z,89.46
2022-10-01T08:59:40.857Z,89.26
2022-10-01T09:00:58.739Z,89.56
2022-10-01T09:02:16.568Z,88.85
2022-10-01T09:03:34.453Z,89.05
2022-10-01T09:04:52.644Z,89.31
2022-10-01T09:06:10.563Z,88.26
2022-10-01T09:07:27.884Z,88.46
2022-10-01T09:08:48.127Z,87.95
2022-10-01T09:10:05.971Z,87.81
2022-10-01T09:11:22.614Z,87.71
2022-10-01T09:12:40.574Z,86.19
2022-10-01T09:13:58.431Z,86.39
2022-10-01T09:15:17.261Z,86.05
2022-10-01T09:16:35.153Z,85.30
2022-10-01T09:17:52.986Z,85.39
2022-10-01T09:19:10.825Z,84.55
2022-10-01T09:20:28.639Z,82.54
2022-10-01T09:21:46.665Z,82.10
2022-10-01T09:23:04.487Z,81.18
2022-10-01T09:24:20.872Z,81.65
2022-10-01T09:25:38.709Z,80.54
2022-10-01T09:26:56.579Z,81.25
2022-10-01T09:28:14.500Z,80.64
2022-10-01T09:29:32.638Z,80.04
2022-10-01T09:30:50.474Z,80.24
2022-10-01T09:32:08.861Z,80.88
2022-10-01T09:33:25.271Z,81.18
2022-10-01T09:34:43.112Z,81.18
2022-10-01T09:36:00.931Z,81.29
2022-10-01T09:37:18.797Z,81.79
2022-10-01T09:38:36.653Z,81.49
2022-10-01T09:39:53.964Z,80.94
2022-10-01T09:41:11.783Z,80.78
2022-10-01T09:42:29.626Z,81.39
2022-10-01T09:43:47.484Z,81.25
2022-10-01T09:45:05.384Z,81.39
2022-10-01T09:46:23.245Z,81.15
2022-10-01T09:47:41.045Z,81.39
2022-10-01T09:48:58.888Z,80.58
2022-10-01T09:50:16.726Z,81.29
2022-10-01T09:51:39.413Z,82.40
2022-10-01T09:52:55.806Z,82.60
2022-10-01T09:54:12.198Z,82.30
2022-10-01T09:55:30.061Z,82.60
2022-10-01T09:56:48.158Z,82.40
2022-10-01T09:58:05.996Z,82.20
2022-10-01T09:59:23.842Z,82.30
2022-10-01T10:00:41.793Z,82.76
2022-10-01T10:01:59.709Z,82.36
2022-10-01T10:03:17.712Z,82.26
2022-10-01T10:04:35.580Z,82.76
2022-10-01T10:05:53.952Z,82.87
2022-10-01T10:07:11.792Z,83.07
2022-10-01T10:08:29.922Z,82.22
2022-10-01T10:09:47.801Z,82.22
2022-10-01T10:11:05.613Z,82.22
2022-10-01T10:12:23.443Z,81.71
2022-10-01T10:13:41.320Z,81.92
2022-10-01T10:15:00.193Z,81.65
2022-10-01T10:16:18.090Z,81.35
2022-10-01T10:17:35.924Z,81.45
2022-10-01T10:18:53.837Z,81.45
2022-10-01T10:20:10.477Z,81.65
2022-10-01T10:21:28.325Z,81.76
2022-10-01T10:22:46.136Z,82.16
2022-10-01T10:24:04.004Z,82.56
2022-10-01T10:25:24.634Z,81.76
2022-10-01T10:26:42.522Z,81.55
2022-10-01T10:28:00.419Z,82.06
2022-10-01T10:29:18.268Z,81.65
2022-10-01T10:30:36.120Z,82.50
2022-10-01T10:31:54.023Z,82.81
2022-10-01T10:33:11.840Z,83.21
2022-10-01T10:34:29.679Z,82.81
2022-10-01T10:35:47.538Z,83.31
2022-10-01T10:37:05.661Z,82.90
2022-10-01T10:38:23.467Z,83.31
2022-10-01T10:39:41.350Z,83.01
2022-10-01T10:40:57.713Z,83.35
2022-10-01T10:42:15.556Z,83.86
2022-10-01T10:43:33.695Z,85.38
2022-10-01T10:44:51.541Z,85.78
2022-10-01T10:46:07.999Z,85.68
2022-10-01T10:47:25.873Z,85.58
2022-10-01T10:48:43.697Z,86.19
2022-10-01T10:50:01.806Z,86.19
2022-10-01T10:51:19.676Z,86.59
2022-10-01T10:52:45.594Z,86.19
2022-10-01T10:54:03.916Z,85.38
2022-10-01T10:55:21.738Z,85.84
2022-10-01T10:56:40.417Z,85.44
2022-10-01T10:57:59.155Z,85.44
2022-10-01T10:59:18.189Z,85.74
2022-10-01T11:00:36.080Z,84.28
2022-10-01T11:01:54.496Z,84.08
2022-10-01T11:03:12.626Z,83.58
2022-10-01T11:04:29.993Z,83.03
2022-10-01T11:05:47.854Z,83.60
2022-10-01T11:07:05.709Z,82.85
2022-10-01T11:08:23.540Z,79.85
2022-10-01T11:09:40.212Z,77.83
2022-10-01T11:10:58.043Z,78.43
2022-10-01T11:12:15.885Z,78.50
2022-10-01T11:13:33.712Z,77.28
2022-10-01T11:14:51.544Z,77.19
2022-10-01T11:16:09.775Z,77.99
2022-10-01T11:17:27.607Z,75.87
2022-10-01T11:18:45.454Z,76.68
2022-10-01T11:20:03.277Z,75.43
2022-10-01T11:21:19.766Z,74.32
2022-10-01T11:22:37.867Z,74.73
2022-10-01T11:23:55.718Z,74.22
2022-10-01T11:25:13.540Z,73.99
2022-10-01T11:26:31.732Z,72.85
2022-10-01T11:27:49.359Z,70.16
2022-10-01T11:29:07.468Z,70.12
2022-10-01T11:30:24.771Z,69.49
2022-10-01T11:31:42.661Z,69.02
2022-10-01T11:33:00.490Z,67.41
2022-10-01T11:34:18.330Z,65.97
2022-10-01T11:35:34.993Z,65.77
2022-10-01T11:36:55.462Z,65.50
2022-10-01T11:38:13.462Z,65.60
2022-10-01T11:39:31.339Z,66.74
2022-10-01T11:40:49.186Z,67.24
2022-10-01T11:42:07.303Z,68.28
2022-10-01T11:43:25.164Z,68.21
2022-10-01T11:44:43.004Z,68.11
2022-10-01T11:46:00.850Z,67.47
2022-10-01T11:47:18.691Z,67.65
2022-10-01T11:48:36.837Z,68.55
2022-10-01T11:49:54.676Z,68.65
2022-10-01T11:51:12.532Z,67.88
2022-10-01T11:52:30.347Z,68.51
2022-10-01T11:53:48.208Z,69.52
2022-10-01T11:55:06.365Z,70.06
2022-10-01T11:56:24.174Z,70.26
2022-10-01T11:57:42.031Z,70.23
2022-10-01T11:58:59.864Z,70.43
2022-10-01T12:00:17.688Z,68.91
2022-10-01T12:01:35.563Z,69.05
2022-10-01T12:02:53.473Z,70.16
2022-10-01T12:04:11.307Z,69.85
2022-10-01T12:05:29.258Z,71.16
2022-10-01T12:06:47.353Z,71.47
2022-10-01T12:08:05.233Z,71.77
2022-10-01T12:09:23.067Z,71.63
2022-10-01T12:10:40.906Z,72.44
2022-10-01T12:11:58.735Z,72.77
2022-10-01T12:13:16.893Z,70.56
2022-10-01T12:14:34.725Z,71.09
2022-10-01T12:15:52.646Z,71.47
2022-10-01T12:17:10.475Z,71.77
2022-10-01T12:18:28.340Z,71.77
2022-10-01T12:19:45.012Z,72.00
2022-10-01T12:21:02.857Z,72.94
2022-10-01T12:22:24.359Z,72.64
2022-10-01T12:23:42.560Z,71.40
2022-10-01T12:24:58.939Z,71.03
2022-10-01T12:26:17.096Z,71.94
2022-10-01T12:27:34.940Z,71.73
2022-10-01T12:28:56.670Z,70.59
2022-10-01T12:30:15.451Z,70.63
2022-10-01T12:31:33.408Z,70.06
2022-10-01T12:32:51.483Z,70.06
2022-10-01T12:34:09.314Z,71.00
2022-10-01T12:35:27.163Z,72.31
2022-10-01T12:36:45.034Z,69.89
2022-10-01T12:38:02.393Z,65.39
2022-10-01T12:39:21.635Z,62.43
2022-10-01T12:40:38.059Z,64.67
2022-10-01T12:41:55.906Z,65.14
2022-10-01T12:43:13.745Z,66.69
2022-10-01T12:44:31.570Z,69.85
2022-10-01T12:45:49.750Z,71.40
2022-10-01T12:47:07.588Z,73.76
2022-10-01T12:48:25.443Z,76.32
2022-10-01T12:49:43.310Z,78.39
2022-10-01T12:51:01.139Z,78.28
2022-10-01T12:52:18.990Z,79.44
2022-10-01T12:53:36.854Z,81.71
2022-10-01T12:54:54.690Z,80.15
2022-10-01T12:56:12.550Z,79.87
2022-10-01T12:57:30.665Z,80.31
2022-10-01T12:58:48.491Z,80.72
2022-10-01T13:00:06.425Z,81.12
2022-10-01T13:01:23.863Z,81.83
2022-10-01T13:02:41.691Z,81.23
2022-10-01T13:04:03.591Z,82.14
2022-10-01T13:05:21.617Z,82.14
2022-10-01T13:06:39.484Z,81.93
2022-10-01T13:07:56.786Z,82.03
2022-10-01T13:09:14.627Z,82.75
2022-10-01T13:10:31.448Z,81.52
2022-10-01T13:11:49.269Z,82.54
2022-10-01T13:13:07.097Z,82.75
2022-10-01T13:14:24.932Z,83.15
2022-10-01T13:15:42.874Z,83.45
2022-10-01T13:17:00.981Z,83.86
2022-10-01T13:18:21.309Z,83.55
2022-10-01T13:19:39.131Z,84.06
2022-10-01T13:20:57.011Z,84.67
2022-10-01T13:22:14.839Z,85.31
2022-10-01T13:23:32.676Z,85.52
2022-10-01T13:24:50.991Z,85.01
2022-10-01T13:26:09.371Z,85.11
2022-10-01T13:27:27.202Z,85.62
2022-10-01T13:28:45.041Z,85.58
2022-10-01T13:30:02.841Z,85.62
2022-10-01T13:31:20.765Z,85.11
2022-10-01T13:32:38.636Z,85.01
2022-10-01T13:33:56.757Z,85.62
2022-10-01T13:35:14.593Z,85.82
2022-10-01T13:36:32.826Z,85.72
2022-10-01T13:37:50.885Z,86.43
2022-10-01T13:39:08.767Z,85.62
2022-10-01T13:40:26.576Z,86.37
2022-10-01T13:41:44.455Z,86.57
2022-10-01T13:43:02.278Z,87.59
2022-10-01T13:44:20.124Z,87.28
2022-10-01T13:45:37.946Z,87.14
2022-10-01T13:46:56.105Z,86.08
2022-10-01T13:48:13.955Z,86.96
2022-10-01T13:49:31.769Z,86.51
2022-10-01T13:50:49.617Z,84.39
2022-10-01T13:52:07.440Z,84.04
2022-10-01T13:53:25.590Z,83.23
2022-10-01T13:54:43.421Z,81.11
2022-10-01T13:56:01.257Z,81.41
2022-10-01T13:57:19.091Z,81.25
2022-10-01T13:58:36.961Z,81.45
2022-10-01T13:59:55.061Z,81.15
2022-10-01T14:01:15.545Z,81.05
2022-10-01T14:02:35.665Z,81.39
2022-10-01T14:03:53.544Z,82.50
2022-10-01T14:05:11.376Z,82.20
2022-10-01T14:06:29.494Z,82.54
2022-10-01T14:07:47.319Z,83.09
2022-10-01T14:09:05.192Z,83.59
2022-10-01T14:10:23.017Z,84.20
2022-10-01T14:11:40.855Z,84.50
2022-10-01T14:12:57.504Z,83.90
2022-10-01T14:14:15.358Z,84.61
2022-10-01T14:15:33.254Z,84.81
2022-10-01T14:16:51.108Z,85.05
2022-10-01T14:18:08.939Z,84.55
2022-10-01T14:19:27.099Z,84.81
2022-10-01T14:20:45.642Z,83.18
2022-10-01T14:22:03.466Z,82.14
2022-10-01T14:23:21.285Z,82.95
2022-10-01T14:24:39.160Z,82.10
2022-10-01T14:25:57.278Z,82.20
2022-10-01T14:27:15.100Z,82.67
2022-10-01T14:28:32.922Z,82.26
2022-10-01T14:29:50.791Z,81.96
2022-10-01T14:31:08.676Z,81.35
2022-10-01T14:32:26.764Z,81.31
2022-10-01T14:33:44.635Z,81.11
2022-10-01T14:35:02.494Z,81.21
2022-10-01T14:36:20.317Z,81.21
2022-10-01T14:37:38.171Z,79.15
2022-10-01T14:38:56.296Z,78.34
2022-10-01T14:40:12.687Z,78.44
2022-10-01T14:41:30.548Z,78.64
2022-10-01T14:42:48.447Z,78.14
2022-10-01T14:44:06.286Z,76.93
2022-10-01T14:45:24.380Z,76.82
2022-10-01T14:46:44.457Z,77.50
2022-10-01T14:48:02.340Z,77.70
2022-10-01T14:49:20.160Z,78.20
2022-10-01T14:50:38.001Z,78.20
2022-10-01T14:51:56.100Z,75.68
2022-10-01T14:53:13.964Z,76.18
2022-10-01T14:54:31.822Z,75.24
2022-10-01T14:55:49.660Z,75.64
2022-10-01T14:57:10.270Z,75.54
2022-10-01T14:58:28.132Z,75.44
2022-10-01T14:59:45.956Z,74.93
2022-10-01T15:01:03.807Z,75.13
2022-10-01T15:02:21.665Z,74.87
2022-10-01T15:03:39.811Z,74.37
2022-10-01T15:04:57.698Z,74.57
2022-10-01T15:06:15.533Z,75.37
2022-10-01T15:07:33.366Z,75.57
2022-10-01T15:08:51.205Z,74.87
2022-10-01T15:10:09.386Z,75.88
2022-10-01T15:11:27.230Z,76.42
2022-10-01T15:12:45.128Z,75.61
2022-10-01T15:14:02.966Z,75.10
2022-10-01T15:15:20.804Z,75.61
2022-10-01T15:16:39.299Z,75.51
2022-10-01T15:17:57.319Z,75.61
2022-10-01T15:19:15.157Z,76.02
2022-10-01T15:20:32.990Z,75.41
2022-10-01T15:21:50.868Z,76.52
2022-10-01T15:23:08.696Z,76.05
2022-10-01T15:24:26.563Z,75.41
2022-10-01T15:25:42.924Z,75.61
2022-10-01T15:27:00.796Z,75.31
2022-10-01T15:28:17.518Z,73.39
2022-10-01T15:29:35.366Z,72.28
2022-10-01T15:30:53.216Z,71.87
2022-10-01T15:32:09.653Z,70.86
2022-10-01T15:33:26.069Z,69.62
2022-10-01T15:34:44.195Z,70.53
2022-10-01T15:36:02.020Z,69.55
2022-10-01T15:37:21.616Z,69.34
2022-10-01T15:38:39.469Z,70.05
2022-10-01T15:39:57.328Z,70.76
2022-10-01T15:41:31.092Z,69.75
2022-10-01T15:42:36.699Z,70.25
2022-10-01T15:43:54.500Z,70.66
2022-10-01T15:45:12.360Z,71.06
2022-10-01T15:46:30.205Z,71.57
2022-10-01T15:47:48.034Z,70.25
2022-10-01T15:49:06.346Z,71.17
2022-10-01T15:50:24.182Z,72.11
2022-10-01T15:51:42.034Z,71.20
2022-10-01T15:53:00.154Z,71.60
2022-10-01T15:54:18.003Z,72.01
2022-10-01T15:55:35.851Z,72.01
2022-10-01T15:56:53.695Z,72.51
2022-10-01T15:58:11.538Z,71.91
2022-10-01T15:59:28.184Z,72.31
2022-10-01T16:00:46.231Z,73.12
2022-10-01T16:02:04.176Z,72.61
2022-10-01T16:03:22.045Z,72.41
2022-10-01T16:04:39.867Z,73.12
2022-10-01T16:05:56.536Z,73.46
2022-10-01T16:07:14.378Z,73.15
2022-10-01T16:08:32.218Z,73.66
2022-10-01T16:09:50.100Z,73.46
2022-10-01T16:11:07.952Z,73.36
2022-10-01T16:12:26.041Z,73.59
2022-10-01T16:13:43.873Z,74.16
2022-10-01T16:15:01.723Z,73.96
2022-10-01T16:16:19.646Z,74.30
2022-10-01T16:17:36.024Z,74.37
2022-10-01T16:18:54.164Z,74.91
2022-10-01T16:20:12.002Z,75.01
2022-10-01T16:21:29.909Z,74.60
2022-10-01T16:22:47.773Z,74.60
2022-10-01T16:24:05.731Z,75.42
2022-10-01T16:25:22.375Z,75.35
2022-10-01T16:26:40.510Z,75.55
2022-10-01T16:27:56.893Z,75.65
2022-10-01T16:29:14.752Z,75.85
2022-10-01T16:30:32.569Z,76.16
2022-10-01T16:31:50.005Z,75.85
2022-10-01T16:33:07.879Z,76.16
2022-10-01T16:34:25.732Z,76.46
2022-10-01T16:35:43.543Z,76.50
2022-10-01T16:37:01.579Z,76.20
2022-10-01T16:38:19.908Z,76.70
2022-10-01T16:39:37.756Z,76.80